ěÝzenÝ letovÚho provozu ╚eskÚ republiky
Letiste: LKCV Aktualizace: 27.02.2024 11:59:41  UTC
 METAR LKCV 27.02. 12:00 ...
METAR LKCV 271200Z 31004KT 4000 BR OVC006 04/03 Q1013 NOSIG RMK YLO YLO=
 TAF LKCV 27.02. 11:00 ...
TAF LKCV 271100Z 2712/2812 VRB02KT 3000 BR BKN005      BECMG 2712/2714 32005KT 7000 NSW SCT020      TEMPO 2714/2718 CAVOK      BECMG 2720/2722 VRB02KT 5000 BR BKN008      TEMPO 2800/2809 2000 DZ BR BKN004      PROB30 TEMPO 2800/2809 0500 FG VV002=